Time;durP1;ratioP1;P1;durP2;ratioP2;P2;SDS_P1;SDS_P2;PMS_P1;PMS_P2;Temp;Humidity;BMP_temperature;BMP_pressure;BME280_temperature;BME280_humidity;BME280_pressure;Samples;Min_cycle;Max_cycle;Signal;HPM_P1;HPM_P2
2024/03/06 00:05:40;;;;;;;79.00;37.90;;;;;;;8.54;98.33;100813.70;678691;1275;139909;-78
2024/03/06 00:20:44;;;;;;;78.20;37.00;;;;;;;8.55;98.14;100816.41;676040;1263;140125;-78
2024/03/06 00:35:48;;;;;;;133.60;57.10;;;;;;;8.59;98.54;100832.00;677226;1263;140155;-78
2024/03/06 00:50:51;;;;;;;79.40;39.80;;;;;;;8.55;98.48;100830.92;677230;1260;139795;-78
2024/03/06 01:05:55;;;;;;;70.00;34.30;;;;;;;8.63;98.18;100836.41;674217;1265;139800;-78
2024/03/06 01:20:59;;;;;;;65.00;33.00;;;;;;;8.63;98.12;100850.19;678759;1263;139762;-78
2024/03/06 01:36:02;;;;;;;57.20;28.40;;;;;;;8.65;97.94;100857.70;674432;1264;139588;-77
2024/03/06 01:51:06;;;;;;;56.90;29.60;;;;;;;8.66;97.80;100865.11;678172;1265;140790;-78
2024/03/06 02:06:11;;;;;;;51.00;26.20;;;;;;;8.67;97.47;100874.11;678795;1265;140228;-77
2024/03/06 02:21:15;;;;;;;51.80;27.70;;;;;;;8.65;97.38;100885.27;678268;1265;140114;-78
2024/03/06 02:36:19;;;;;;;51.90;27.50;;;;;;;8.64;97.34;100887.27;676800;1269;140036;-78
2024/03/06 02:51:22;;;;;;;49.70;24.70;;;;;;;8.61;97.58;100886.81;675472;1276;139886;-79
2024/03/06 03:06:25;;;;;;;45.30;23.40;;;;;;;8.52;97.40;100891.79;674632;1264;139720;-78
2024/03/06 03:21:30;;;;;;;53.90;24.60;;;;;;;8.41;97.81;100898.77;677217;1273;139521;-78
2024/03/06 03:36:34;;;;;;;44.20;22.90;;;;;;;8.44;97.75;100903.92;674723;1264;140688;-78
2024/03/06 03:51:39;;;;;;;45.80;21.90;;;;;;;8.47;97.82;100913.56;674703;1266;139507;-78
2024/03/06 04:06:42;;;;;;;45.90;22.70;;;;;;;8.30;97.57;100921.31;675673;1266;141046;-77
2024/03/06 04:21:48;;;;;;;37.40;18.20;;;;;;;8.18;97.15;100934.63;676194;1264;139819;-78
2024/03/06 04:36:51;;;;;;;41.00;20.40;;;;;;;8.24;97.23;100946.06;673516;1265;139975;-77
2024/03/06 04:51:55;;;;;;;47.60;21.60;;;;;;;8.16;96.79;100955.84;676081;1266;139307;-78
2024/03/06 05:06:58;;;;;;;34.00;17.30;;;;;;;8.12;96.29;100969.91;676968;1265;140417;-78
2024/03/06 05:22:19;;;;;;;35.50;19.90;;;;;;;7.92;95.66;100978.52;674961;1274;140252;-78
2024/03/06 05:37:39;;;;;;;35.30;18.50;;;;;;;7.85;95.14;100993.80;675524;1266;140490;-78
2024/03/06 05:52:59;;;;;;;87.70;42.80;;;;;;;7.80;94.11;101004.41;674145;1266;139984;-78
2024/03/06 06:08:20;;;;;;;43.30;24.10;;;;;;;7.67;93.45;101016.52;678330;1265;139498;-78
2024/03/06 06:23:24;;;;;;;86.10;37.50;;;;;;;7.71;92.78;101026.94;675165;1270;140339;-78
2024/03/06 06:38:27;;;;;;;43.50;20.90;;;;;;;7.78;92.21;101039.70;674558;1261;140183;-78
2024/03/06 06:53:31;;;;;;;36.90;17.10;;;;;;;8.02;91.06;101055.03;674614;1266;140147;-78
2024/03/06 07:08:39;;;;;;;29.00;16.30;;;;;;;8.95;89.83;101064.46;678996;1267;141290;-79
2024/03/06 07:23:44;;;;;;;25.40;15.10;;;;;;;11.45;82.93;101071.02;674615;1267;140111;-77
2024/03/06 07:38:48;;;;;;;33.60;15.30;;;;;;;10.32;79.43;101085.29;674885;1267;140451;-77
2024/03/06 07:53:54;;;;;;;22.40;11.90;;;;;;;9.78;76.77;101096.31;677994;1265;140485;-76
2024/03/06 08:08:58;;;;;;;22.70;13.10;;;;;;;11.85;75.64;101103.83;676964;1264;219217;-77
2024/03/06 08:24:04;;;;;;;21.10;11.20;;;;;;;14.52;70.21;101118.08;677108;1265;140570;-77
2024/03/06 08:39:12;;;;;;;16.10;9.90;;;;;;;15.67;64.37;101126.98;676703;1267;139349;-77
2024/03/06 08:54:16;;;;;;;19.30;13.40;;;;;;;16.22;63.97;101142.64;675948;1262;139118;-77
2024/03/06 09:09:20;;;;;;;18.90;12.80;;;;;;;15.26;62.01;101156.46;679523;1265;139293;-77
2024/03/06 09:24:25;;;;;;;20.20;10.10;;;;;;;14.98;61.56;101163.10;674868;1264;142084;-77
2024/03/06 09:39:29;;;;;;;15.60;9.70;;;;;;;14.90;59.51;101165.70;675648;1265;139159;-78
2024/03/06 09:54:33;;;;;;;16.90;9.00;;;;;;;15.59;57.58;101173.67;679280;1264;139522;-77
2024/03/06 10:09:37;;;;;;;31.50;22.90;;;;;;;15.92;56.26;101175.70;678724;1276;139903;-77
2024/03/06 10:24:40;;;;;;;34.20;12.80;;;;;;;15.24;54.23;101186.38;679377;1262;139881;-77
2024/03/06 10:39:44;;;;;;;12.70;7.30;;;;;;;14.36;52.62;101194.73;677798;1265;140059;-78
2024/03/06 10:54:48;;;;;;;12.30;6.60;;;;;;;15.08;52.15;101199.09;676203;1267;139308;-78
2024/03/06 11:09:50;;;;;;;13.50;7.80;;;;;;;14.42;49.93;101198.91;677318;1267;140561;-78
2024/03/06 11:24:53;;;;;;;20.80;10.20;;;;;;;13.97;49.83;101195.16;674665;1261;140419;-78
2024/03/06 11:40:00;;;;;;;19.50;9.50;;;;;;;13.99;50.00;101196.96;681433;1262;139138;-78
2024/03/06 11:55:05;;;;;;;9.80;6.40;;;;;;;13.59;50.12;101205.48;681302;1264;140487;-78
2024/03/06 12:10:08;;;;;;;22.40;10.00;;;;;;;13.81;50.64;101209.05;681588;1261;139761;-78
2024/03/06 12:25:19;;;;;;;33.50;13.70;;;;;;;13.46;51.05;101215.07;681628;1262;139853;-78
2024/03/06 12:40:22;;;;;;;14.20;7.40;;;;;;;13.24;51.23;101206.32;681842;1263;138518;-77
2024/03/06 12:55:26;;;;;;;14.70;6.80;;;;;;;12.88;51.53;101208.45;681651;1260;140567;-77
2024/03/06 13:10:29;;;;;;;11.70;7.70;;;;;;;13.19;50.79;101205.50;681634;1264;140317;-77
2024/03/06 13:25:32;;;;;;;14.50;6.50;;;;;;;12.92;50.53;101208.67;681322;1265;139118;-78
2024/03/06 13:40:37;;;;;;;9.70;4.80;;;;;;;12.55;50.18;101209.23;681683;1259;138505;-77
2024/03/06 13:55:40;;;;;;;19.40;7.70;;;;;;;12.35;49.58;101209.96;681625;1261;140015;-78
2024/03/06 14:10:45;;;;;;;12.40;5.80;;;;;;;12.28;49.32;101213.49;681711;1264;139669;-79
2024/03/06 14:25:51;;;;;;;11.60;5.40;;;;;;;12.21;49.14;101216.73;681334;1277;140231;-78
2024/03/06 14:40:54;;;;;;;7.20;4.00;;;;;;;11.88;49.47;101224.68;681741;1264;138837;-78
2024/03/06 14:55:57;;;;;;;10.50;5.90;;;;;;;11.72;48.76;101228.55;681611;1262;140528;-78
2024/03/06 15:11:00;;;;;;;9.70;5.80;;;;;;;11.49;49.22;101235.25;681694;1262;138226;-79
2024/03/06 15:26:02;;;;;;;205.10;79.00;;;;;;;10.96;48.91;101253.56;681590;1262;138418;-79
2024/03/06 15:41:08;;;;;;;403.90;149.80;;;;;;;10.42;48.46;101258.67;681486;1262;138961;-79
2024/03/06 15:56:14;;;;;;;149.20;53.00;;;;;;;10.40;48.52;101278.44;681317;1264;138508;-78
2024/03/06 16:11:17;;;;;;;96.00;36.00;;;;;;;10.21;49.74;101291.34;681593;1264;138489;-78
2024/03/06 16:26:20;;;;;;;247.20;98.80;;;;;;;9.56;51.08;101306.56;681253;1264;139076;-79
2024/03/06 16:41:25;;;;;;;202.30;82.10;;;;;;;9.00;51.93;101319.02;681361;1260;138650;-79
2024/03/06 16:56:29;;;;;;;94.60;37.80;;;;;;;8.54;53.54;101338.65;681668;1262;138307;-79
2024/03/06 17:11:33;;;;;;;256.60;96.90;;;;;;;7.90;54.63;101362.57;681277;1260;139682;-79
2024/03/06 17:26:37;;;;;;;363.20;135.20;;;;;;;7.55;55.35;101382.73;681696;1273;139056;-78
2024/03/06 17:41:44;;;;;;;456.00;182.10;;;;;;;7.32;55.82;101394.06;681719;1260;139890;-78
2024/03/06 17:56:48;;;;;;;358.50;120.70;;;;;;;6.85;56.39;101404.52;681862;1264;138371;-78
2024/03/06 18:11:52;;;;;;;346.40;114.50;;;;;;;6.44;57.79;101415.90;681825;1265;139262;-78
2024/03/06 18:26:58;;;;;;;457.60;161.60;;;;;;;6.05;58.29;101427.44;681807;1266;140271;-79
2024/03/06 18:42:03;;;;;;;212.20;66.50;;;;;;;5.33;60.26;101438.38;681534;1266;140297;-79
2024/03/06 18:57:26;;;;;;;63.40;28.70;;;;;;;5.36;60.72;101446.02;681620;1265;139290;-79
2024/03/06 19:12:30;;;;;;;167.30;63.70;;;;;;;4.25;63.07;101462.98;681493;1274;139386;-79
2024/03/06 19:27:37;;;;;;;169.30;56.90;;;;;;;3.92;64.18;101470.97;681584;1265;139866;-80
2024/03/06 19:42:42;;;;;;;114.20;44.40;;;;;;;3.81;65.17;101485.79;680863;1268;138929;-80
2024/03/06 19:57:50;;;;;;;422.10;140.10;;;;;;;3.70;65.28;101496.42;681030;1265;138906;-80
2024/03/06 20:13:01;;;;;;;136.60;51.00;;;;;;;3.45;65.82;101507.92;673529;1264;10141407;-80
2024/03/06 20:28:09;;;;;;;90.70;28.50;;;;;;;3.46;65.90;101507.39;681141;1263;140351;-80
2024/03/06 20:43:12;;;;;;;37.70;16.60;;;;;;;3.44;65.78;101509.20;681087;1265;138834;-80
2024/03/06 20:58:19;;;;;;;94.70;31.00;;;;;;;4.47;63.83;101519.50;681314;1263;139850;-80
2024/03/06 21:13:25;;;;;;;66.60;24.20;;;;;;;4.94;62.46;101525.34;681096;1266;140093;-80
2024/03/06 21:28:31;;;;;;;63.30;23.00;;;;;;;4.83;62.28;101534.84;681473;1265;140203;-80
2024/03/06 21:43:35;;;;;;;25.70;12.10;;;;;;;4.58;62.26;101544.77;681053;1267;139361;-80
2024/03/06 21:58:38;;;;;;;28.90;14.00;;;;;;;4.49;62.55;101545.11;681396;1264;139477;-79
2024/03/06 22:13:43;;;;;;;32.70;14.10;;;;;;;4.32;62.76;101546.69;681208;1265;138776;-81
2024/03/06 22:28:53;;;;;;;26.40;13.20;;;;;;;4.09;63.06;101555.77;681278;1265;139090;-79
2024/03/06 22:43:57;;;;;;;73.10;26.60;;;;;;;3.47;64.52;101566.82;681462;1266;139358;-78
2024/03/06 22:59:01;;;;;;;101.70;39.80;;;;;;;3.07;66.20;101571.77;681304;1263;139173;-78
2024/03/06 23:14:06;;;;;;;55.00;20.30;;;;;;;2.88;66.69;101573.81;681375;1260;139837;-79
2024/03/06 23:29:12;;;;;;;65.50;23.30;;;;;;;2.74;67.00;101574.46;681635;1260;138980;-78
2024/03/06 23:44:17;;;;;;;90.70;30.50;;;;;;;2.89;65.99;101578.98;681468;1267;139477;-79
2024/03/06 23:59:21;;;;;;;88.30;29.90;;;;;;;2.20;67.67;101582.17;681452;1264;139122;-79
